sensor_id;sensor_type;location;lat;lon;timestamp;P1;durP1;ratioP1;P2;durP2;ratioP2
18592;SDS011;9426;54.118;17.948;2022-08-07T00:02:28;7.17;;;3.30;;
18592;SDS011;9426;54.118;17.948;2022-08-07T00:07:52;6.87;;;3.20;;
18592;SDS011;9426;54.118;17.948;2022-08-07T00:13:17;8.13;;;3.80;;
18592;SDS011;9426;54.118;17.948;2022-08-07T00:18:42;7.07;;;3.90;;
18592;SDS011;9426;54.118;17.948;2022-08-07T00:24:06;8.87;;;4.07;;
18592;SDS011;9426;54.118;17.948;2022-08-07T00:29:32;8.33;;;4.03;;
18592;SDS011;9426;54.118;17.948;2022-08-07T00:34:55;7.23;;;4.03;;
18592;SDS011;9426;54.118;17.948;2022-08-07T00:40:18;7.20;;;4.40;;
18592;SDS011;9426;54.118;17.948;2022-08-07T00:45:43;7.83;;;3.60;;
18592;SDS011;9426;54.118;17.948;2022-08-07T00:51:07;7.47;;;4.43;;
18592;SDS011;9426;54.118;17.948;2022-08-07T00:56:31;9.03;;;5.40;;
18592;SDS011;9426;54.118;17.948;2022-08-07T01:01:56;10.43;;;4.93;;
18592;SDS011;9426;54.118;17.948;2022-08-07T01:07:19;9.87;;;5.50;;
18592;SDS011;9426;54.118;17.948;2022-08-07T01:12:44;10.53;;;5.17;;
18592;SDS011;9426;54.118;17.948;2022-08-07T01:18:09;10.70;;;5.10;;
18592;SDS011;9426;54.118;17.948;2022-08-07T01:23:34;9.13;;;4.83;;
18592;SDS011;9426;54.118;17.948;2022-08-07T01:29:01;7.70;;;5.20;;
18592;SDS011;9426;54.118;17.948;2022-08-07T01:34:26;8.43;;;5.40;;
18592;SDS011;9426;54.118;17.948;2022-08-07T01:39:59;10.97;;;6.40;;
18592;SDS011;9426;54.118;17.948;2022-08-07T01:45:27;9.07;;;5.50;;
18592;SDS011;9426;54.118;17.948;2022-08-07T01:50:53;8.50;;;5.87;;
18592;SDS011;9426;54.118;17.948;2022-08-07T01:56:23;12.97;;;6.37;;
18592;SDS011;9426;54.118;17.948;2022-08-07T02:01:52;11.57;;;6.43;;
18592;SDS011;9426;54.118;17.948;2022-08-07T02:07:21;13.00;;;7.40;;
18592;SDS011;9426;54.118;17.948;2022-08-07T02:12:49;19.00;;;9.07;;
18592;SDS011;9426;54.118;17.948;2022-08-07T02:18:20;15.93;;;8.47;;
18592;SDS011;9426;54.118;17.948;2022-08-07T02:23:44;16.60;;;8.70;;
18592;SDS011;9426;54.118;17.948;2022-08-07T02:29:10;19.10;;;8.93;;
18592;SDS011;9426;54.118;17.948;2022-08-07T02:34:36;13.77;;;6.87;;
18592;SDS011;9426;54.118;17.948;2022-08-07T02:40:02;18.47;;;8.63;;
18592;SDS011;9426;54.118;17.948;2022-08-07T02:45:29;15.27;;;7.77;;
18592;SDS011;9426;54.118;17.948;2022-08-07T02:50:53;15.43;;;7.37;;
18592;SDS011;9426;54.118;17.948;2022-08-07T02:56:17;15.83;;;7.97;;
18592;SDS011;9426;54.118;17.948;2022-08-07T03:01:44;14.77;;;7.67;;
18592;SDS011;9426;54.118;17.948;2022-08-07T03:07:08;14.90;;;7.90;;
18592;SDS011;9426;54.118;17.948;2022-08-07T03:12:35;14.43;;;7.60;;
18592;SDS011;9426;54.118;17.948;2022-08-07T03:18:05;10.80;;;6.93;;
18592;SDS011;9426;54.118;17.948;2022-08-07T03:23:30;12.50;;;7.20;;
18592;SDS011;9426;54.118;17.948;2022-08-07T03:28:56;12.23;;;7.20;;
18592;SDS011;9426;54.118;17.948;2022-08-07T03:34:24;9.90;;;7.17;;
18592;SDS011;9426;54.118;17.948;2022-08-07T03:39:52;11.00;;;6.67;;
18592;SDS011;9426;54.118;17.948;2022-08-07T03:45:16;13.47;;;7.67;;
18592;SDS011;9426;54.118;17.948;2022-08-07T03:50:43;16.70;;;7.77;;
18592;SDS011;9426;54.118;17.948;2022-08-07T03:56:09;19.27;;;7.83;;
18592;SDS011;9426;54.118;17.948;2022-08-07T04:01:33;10.33;;;6.57;;
18592;SDS011;9426;54.118;17.948;2022-08-07T04:07:04;11.77;;;6.87;;
18592;SDS011;9426;54.118;17.948;2022-08-07T04:12:29;11.73;;;5.70;;
18592;SDS011;9426;54.118;17.948;2022-08-07T04:17:53;9.10;;;6.00;;
18592;SDS011;9426;54.118;17.948;2022-08-07T04:23:19;9.37;;;5.73;;
18592;SDS011;9426;54.118;17.948;2022-08-07T04:28:43;8.30;;;5.10;;
18592;SDS011;9426;54.118;17.948;2022-08-07T04:34:07;12.97;;;5.53;;
18592;SDS011;9426;54.118;17.948;2022-08-07T04:39:32;6.83;;;4.40;;
18592;SDS011;9426;54.118;17.948;2022-08-07T04:45:00;7.47;;;4.50;;
18592;SDS011;9426;54.118;17.948;2022-08-07T04:50:29;8.57;;;4.63;;
18592;SDS011;9426;54.118;17.948;2022-08-07T04:56:08;6.83;;;3.73;;
18592;SDS011;9426;54.118;17.948;2022-08-07T05:01:41;9.13;;;4.47;;
18592;SDS011;9426;54.118;17.948;2022-08-07T05:07:11;9.50;;;4.80;;
18592;SDS011;9426;54.118;17.948;2022-08-07T05:12:43;6.23;;;3.50;;
18592;SDS011;9426;54.118;17.948;2022-08-07T05:18:13;6.03;;;3.87;;
18592;SDS011;9426;54.118;17.948;2022-08-07T05:23:46;7.03;;;3.70;;
18592;SDS011;9426;54.118;17.948;2022-08-07T05:29:13;6.73;;;3.23;;
18592;SDS011;9426;54.118;17.948;2022-08-07T05:34:39;8.93;;;3.57;;
18592;SDS011;9426;54.118;17.948;2022-08-07T05:40:04;7.20;;;3.40;;
18592;SDS011;9426;54.118;17.948;2022-08-07T05:45:30;9.10;;;2.93;;
18592;SDS011;9426;54.118;17.948;2022-08-07T05:50:57;6.97;;;2.93;;
18592;SDS011;9426;54.118;17.948;2022-08-07T05:56:25;7.67;;;2.63;;
18592;SDS011;9426;54.118;17.948;2022-08-07T06:01:50;6.40;;;2.63;;
18592;SDS011;9426;54.118;17.948;2022-08-07T06:07:16;5.10;;;2.57;;
18592;SDS011;9426;54.118;17.948;2022-08-07T06:12:40;6.30;;;2.00;;
18592;SDS011;9426;54.118;17.948;2022-08-07T06:18:04;6.87;;;2.23;;
18592;SDS011;9426;54.118;17.948;2022-08-07T06:23:30;6.13;;;1.90;;
18592;SDS011;9426;54.118;17.948;2022-08-07T06:28:56;6.70;;;1.80;;
18592;SDS011;9426;54.118;17.948;2022-08-07T06:34:24;2.73;;;1.70;;
18592;SDS011;9426;54.118;17.948;2022-08-07T06:39:49;4.47;;;1.60;;
18592;SDS011;9426;54.118;17.948;2022-08-07T06:45:14;2.73;;;1.50;;
18592;SDS011;9426;54.118;17.948;2022-08-07T06:50:47;3.43;;;1.50;;
18592;SDS011;9426;54.118;17.948;2022-08-07T06:56:14;3.30;;;1.47;;
18592;SDS011;9426;54.118;17.948;2022-08-07T07:02:03;4.00;;;1.40;;
18592;SDS011;9426;54.118;17.948;2022-08-07T07:07:31;4.00;;;1.10;;
18592;SDS011;9426;54.118;17.948;2022-08-07T07:12:55;4.33;;;1.10;;
18592;SDS011;9426;54.118;17.948;2022-08-07T07:18:22;3.13;;;1.00;;
18592;SDS011;9426;54.118;17.948;2022-08-07T07:23:51;6.43;;;1.40;;
18592;SDS011;9426;54.118;17.948;2022-08-07T07:29:15;6.00;;;1.77;;
18592;SDS011;9426;54.118;17.948;2022-08-07T07:34:43;3.97;;;1.00;;
18592;SDS011;9426;54.118;17.948;2022-08-07T07:40:12;4.43;;;1.30;;
18592;SDS011;9426;54.118;17.948;2022-08-07T07:45:37;4.03;;;1.00;;
18592;SDS011;9426;54.118;17.948;2022-08-07T07:51:02;4.03;;;0.93;;
18592;SDS011;9426;54.118;17.948;2022-08-07T07:56:28;7.80;;;1.20;;
18592;SDS011;9426;54.118;17.948;2022-08-07T08:01:54;2.83;;;1.03;;
18592;SDS011;9426;54.118;17.948;2022-08-07T08:07:20;4.00;;;1.00;;
18592;SDS011;9426;54.118;17.948;2022-08-07T08:12:46;2.73;;;1.00;;
18592;SDS011;9426;54.118;17.948;2022-08-07T08:18:11;3.77;;;0.70;;
18592;SDS011;9426;54.118;17.948;2022-08-07T08:23:36;4.53;;;1.20;;
18592;SDS011;9426;54.118;17.948;2022-08-07T08:29:19;2.77;;;0.87;;
18592;SDS011;9426;54.118;17.948;2022-08-07T08:34:43;3.67;;;0.93;;
18592;SDS011;9426;54.118;17.948;2022-08-07T08:40:12;2.47;;;0.70;;
18592;SDS011;9426;54.118;17.948;2022-08-07T08:45:47;1.97;;;0.80;;
18592;SDS011;9426;54.118;17.948;2022-08-07T08:51:18;2.40;;;0.87;;
18592;SDS011;9426;54.118;17.948;2022-08-07T08:56:49;3.20;;;0.90;;
18592;SDS011;9426;54.118;17.948;2022-08-07T09:02:18;2.93;;;0.73;;
18592;SDS011;9426;54.118;17.948;2022-08-07T09:07:56;8.97;;;1.10;;
18592;SDS011;9426;54.118;17.948;2022-08-07T09:13:34;4.10;;;0.97;;
18592;SDS011;9426;54.118;17.948;2022-08-07T09:19:19;2.93;;;0.87;;
18592;SDS011;9426;54.118;17.948;2022-08-07T09:24:55;5.90;;;1.37;;
18592;SDS011;9426;54.118;17.948;2022-08-07T09:30:22;3.07;;;0.87;;
18592;SDS011;9426;54.118;17.948;2022-08-07T09:35:51;6.60;;;1.20;;
18592;SDS011;9426;54.118;17.948;2022-08-07T09:41:23;3.73;;;1.00;;
18592;SDS011;9426;54.118;17.948;2022-08-07T09:46:57;3.20;;;0.90;;
18592;SDS011;9426;54.118;17.948;2022-08-07T09:52:33;2.07;;;0.60;;
18592;SDS011;9426;54.118;17.948;2022-08-07T09:58:13;3.70;;;0.80;;
18592;SDS011;9426;54.118;17.948;2022-08-07T10:03:56;1.80;;;0.83;;
18592;SDS011;9426;54.118;17.948;2022-08-07T10:09:48;1.87;;;0.90;;
18592;SDS011;9426;54.118;17.948;2022-08-07T10:15:24;2.83;;;0.80;;
18592;SDS011;9426;54.118;17.948;2022-08-07T10:21:04;3.57;;;0.93;;
18592;SDS011;9426;54.118;17.948;2022-08-07T10:26:45;2.23;;;0.67;;
18592;SDS011;9426;54.118;17.948;2022-08-07T10:32:25;2.03;;;0.87;;
18592;SDS011;9426;54.118;17.948;2022-08-07T10:38:01;3.27;;;0.93;;
18592;SDS011;9426;54.118;17.948;2022-08-07T10:43:36;1.70;;;0.70;;
18592;SDS011;9426;54.118;17.948;2022-08-07T10:49:06;2.73;;;0.93;;
18592;SDS011;9426;54.118;17.948;2022-08-07T10:54:36;1.20;;;0.60;;
18592;SDS011;9426;54.118;17.948;2022-08-07T11:00:09;5.47;;;1.10;;
18592;SDS011;9426;54.118;17.948;2022-08-07T11:05:35;6.13;;;0.83;;
18592;SDS011;9426;54.118;17.948;2022-08-07T11:11:07;1.17;;;0.70;;
18592;SDS011;9426;54.118;17.948;2022-08-07T11:16:38;3.40;;;0.90;;
18592;SDS011;9426;54.118;17.948;2022-08-07T11:22:11;1.40;;;0.80;;
18592;SDS011;9426;54.118;17.948;2022-08-07T11:27:44;1.50;;;0.90;;
18592;SDS011;9426;54.118;17.948;2022-08-07T11:33:17;1.75;;;0.73;;
18592;SDS011;9426;54.118;17.948;2022-08-07T11:38:48;2.97;;;0.90;;
18592;SDS011;9426;54.118;17.948;2022-08-07T11:44:26;1.88;;;0.80;;
18592;SDS011;9426;54.118;17.948;2022-08-07T11:50:06;15.88;;;8.35;;
18592;SDS011;9426;54.118;17.948;2022-08-07T11:55:44;6.63;;;1.15;;
18592;SDS011;9426;54.118;17.948;2022-08-07T12:01:23;5.75;;;3.20;;
18592;SDS011;9426;54.118;17.948;2022-08-07T12:06:58;2.92;;;1.10;;
18592;SDS011;9426;54.118;17.948;2022-08-07T12:12:27;3.15;;;0.80;;
18592;SDS011;9426;54.118;17.948;2022-08-07T12:17:59;26.75;;;18.55;;
18592;SDS011;9426;54.118;17.948;2022-08-07T12:23:30;5.85;;;2.28;;
18592;SDS011;9426;54.118;17.948;2022-08-07T12:29:08;6.60;;;3.13;;
18592;SDS011;9426;54.118;17.948;2022-08-07T12:34:37;2.42;;;0.80;;
18592;SDS011;9426;54.118;17.948;2022-08-07T12:40:04;1.88;;;0.77;;
18592;SDS011;9426;54.118;17.948;2022-08-07T12:45:42;2.85;;;0.80;;
18592;SDS011;9426;54.118;17.948;2022-08-07T12:51:14;1.17;;;0.70;;
18592;SDS011;9426;54.118;17.948;2022-08-07T12:56:42;1.63;;;0.80;;
18592;SDS011;9426;54.118;17.948;2022-08-07T13:02:11;2.17;;;0.73;;
18592;SDS011;9426;54.118;17.948;2022-08-07T13:07:57;2.58;;;1.10;;
18592;SDS011;9426;54.118;17.948;2022-08-07T13:13:33;5.72;;;1.20;;
18592;SDS011;9426;54.118;17.948;2022-08-07T13:19:11;5.22;;;1.00;;
18592;SDS011;9426;54.118;17.948;2022-08-07T13:24:43;2.73;;;1.07;;
18592;SDS011;9426;54.118;17.948;2022-08-07T13:30:13;1.35;;;0.70;;
18592;SDS011;9426;54.118;17.948;2022-08-07T13:35:38;1.42;;;0.90;;
18592;SDS011;9426;54.118;17.948;2022-08-07T13:41:09;3.08;;;1.02;;
18592;SDS011;9426;54.118;17.948;2022-08-07T13:46:40;4.40;;;0.95;;
18592;SDS011;9426;54.118;17.948;2022-08-07T13:52:07;4.95;;;0.90;;
18592;SDS011;9426;54.118;17.948;2022-08-07T13:57:33;1.52;;;0.77;;
18592;SDS011;9426;54.118;17.948;2022-08-07T14:03:01;3.08;;;1.00;;
18592;SDS011;9426;54.118;17.948;2022-08-07T14:08:28;2.38;;;0.80;;
18592;SDS011;9426;54.118;17.948;2022-08-07T14:13:53;5.20;;;1.17;;
18592;SDS011;9426;54.118;17.948;2022-08-07T14:19:31;2.95;;;1.13;;
18592;SDS011;9426;54.118;17.948;2022-08-07T14:24:59;2.80;;;0.82;;
18592;SDS011;9426;54.118;17.948;2022-08-07T14:30:28;2.28;;;0.80;;
18592;SDS011;9426;54.118;17.948;2022-08-07T14:35:55;3.88;;;1.00;;
18592;SDS011;9426;54.118;17.948;2022-08-07T14:41:23;2.33;;;0.90;;
18592;SDS011;9426;54.118;17.948;2022-08-07T14:46:49;3.80;;;1.13;;
18592;SDS011;9426;54.118;17.948;2022-08-07T14:52:18;4.47;;;1.05;;
18592;SDS011;9426;54.118;17.948;2022-08-07T14:57:48;3.63;;;0.82;;
18592;SDS011;9426;54.118;17.948;2022-08-07T15:03:12;3.35;;;0.90;;
18592;SDS011;9426;54.118;17.948;2022-08-07T15:08:39;2.92;;;1.25;;
18592;SDS011;9426;54.118;17.948;2022-08-07T15:14:07;3.55;;;1.17;;
18592;SDS011;9426;54.118;17.948;2022-08-07T15:19:36;2.40;;;0.97;;
18592;SDS011;9426;54.118;17.948;2022-08-07T15:25:03;2.43;;;0.80;;
18592;SDS011;9426;54.118;17.948;2022-08-07T15:30:36;2.13;;;0.87;;
18592;SDS011;9426;54.118;17.948;2022-08-07T15:36:00;3.67;;;1.00;;
18592;SDS011;9426;54.118;17.948;2022-08-07T15:41:28;4.97;;;1.10;;
18592;SDS011;9426;54.118;17.948;2022-08-07T15:46:55;1.67;;;0.80;;
18592;SDS011;9426;54.118;17.948;2022-08-07T15:52:21;2.60;;;0.93;;
18592;SDS011;9426;54.118;17.948;2022-08-07T15:57:50;4.53;;;1.25;;
18592;SDS011;9426;54.118;17.948;2022-08-07T16:03:16;3.92;;;1.10;;
18592;SDS011;9426;54.118;17.948;2022-08-07T16:08:43;3.17;;;0.90;;
18592;SDS011;9426;54.118;17.948;2022-08-07T16:14:12;2.63;;;0.90;;
18592;SDS011;9426;54.118;17.948;2022-08-07T16:25:54;4.07;;;0.90;;
18592;SDS011;9426;54.118;17.948;2022-08-07T16:31:29;3.13;;;1.20;;
18592;SDS011;9426;54.118;17.948;2022-08-07T16:43:11;7.43;;;1.43;;
18592;SDS011;9426;54.118;17.948;2022-08-07T16:54:50;3.73;;;1.10;;
18592;SDS011;9426;54.118;17.948;2022-08-07T17:00:20;3.60;;;1.30;;
18592;SDS011;9426;54.118;17.948;2022-08-07T17:06:02;4.00;;;1.27;;
18592;SDS011;9426;54.118;17.948;2022-08-07T17:11:37;5.93;;;1.47;;
18592;SDS011;9426;54.118;17.948;2022-08-07T17:17:13;2.57;;;1.10;;
18592;SDS011;9426;54.118;17.948;2022-08-07T17:22:55;2.97;;;1.60;;
18592;SDS011;9426;54.118;17.948;2022-08-07T17:28:23;2.40;;;1.10;;
18592;SDS011;9426;54.118;17.948;2022-08-07T17:33:58;6.93;;;1.43;;
18592;SDS011;9426;54.118;17.948;2022-08-07T17:39:37;2.80;;;1.40;;
18592;SDS011;9426;54.118;17.948;2022-08-07T17:45:08;1.77;;;1.10;;
18592;SDS011;9426;54.118;17.948;2022-08-07T17:50:35;2.30;;;1.10;;
18592;SDS011;9426;54.118;17.948;2022-08-07T17:56:15;4.37;;;1.50;;
18592;SDS011;9426;54.118;17.948;2022-08-07T18:01:45;5.70;;;2.00;;
18592;SDS011;9426;54.118;17.948;2022-08-07T18:07:22;2.90;;;1.67;;
18592;SDS011;9426;54.118;17.948;2022-08-07T18:18:50;6.20;;;3.30;;
18592;SDS011;9426;54.118;17.948;2022-08-07T18:24:16;4.63;;;2.70;;
18592;SDS011;9426;54.118;17.948;2022-08-07T18:29:55;6.93;;;2.20;;
18592;SDS011;9426;54.118;17.948;2022-08-07T18:35:25;5.77;;;1.50;;
18592;SDS011;9426;54.118;17.948;2022-08-07T18:41:02;4.33;;;1.70;;
18592;SDS011;9426;54.118;17.948;2022-08-07T18:46:36;5.67;;;1.97;;
18592;SDS011;9426;54.118;17.948;2022-08-07T18:52:13;6.30;;;2.07;;
18592;SDS011;9426;54.118;17.948;2022-08-07T18:58:03;5.47;;;1.90;;
18592;SDS011;9426;54.118;17.948;2022-08-07T19:03:43;5.90;;;1.77;;
18592;SDS011;9426;54.118;17.948;2022-08-07T19:09:12;2.27;;;1.37;;
18592;SDS011;9426;54.118;17.948;2022-08-07T19:14:43;4.17;;;1.57;;
18592;SDS011;9426;54.118;17.948;2022-08-07T19:20:24;6.37;;;2.03;;
18592;SDS011;9426;54.118;17.948;2022-08-07T19:25:55;4.43;;;2.00;;
18592;SDS011;9426;54.118;17.948;2022-08-07T19:31:22;3.10;;;1.60;;
18592;SDS011;9426;54.118;17.948;2022-08-07T19:36:56;3.23;;;1.77;;
18592;SDS011;9426;54.118;17.948;2022-08-07T19:42:21;5.10;;;1.90;;
18592;SDS011;9426;54.118;17.948;2022-08-07T19:47:46;2.23;;;1.50;;
18592;SDS011;9426;54.118;17.948;2022-08-07T19:53:13;2.07;;;1.40;;
18592;SDS011;9426;54.118;17.948;2022-08-07T19:58:37;2.60;;;1.67;;
18592;SDS011;9426;54.118;17.948;2022-08-07T20:04:02;3.83;;;1.97;;
18592;SDS011;9426;54.118;17.948;2022-08-07T20:09:30;3.87;;;1.73;;
18592;SDS011;9426;54.118;17.948;2022-08-07T20:14:55;10.73;;;2.30;;
18592;SDS011;9426;54.118;17.948;2022-08-07T20:20:20;6.50;;;2.30;;
18592;SDS011;9426;54.118;17.948;2022-08-07T20:25:48;4.53;;;2.17;;
18592;SDS011;9426;54.118;17.948;2022-08-07T20:31:14;5.07;;;1.90;;
18592;SDS011;9426;54.118;17.948;2022-08-07T20:36:39;4.50;;;2.13;;
18592;SDS011;9426;54.118;17.948;2022-08-07T20:42:07;4.13;;;2.10;;
18592;SDS011;9426;54.118;17.948;2022-08-07T20:47:33;4.33;;;2.20;;
18592;SDS011;9426;54.118;17.948;2022-08-07T20:52:59;4.80;;;2.10;;
18592;SDS011;9426;54.118;17.948;2022-08-07T20:58:26;6.43;;;2.17;;
18592;SDS011;9426;54.118;17.948;2022-08-07T21:03:55;3.80;;;1.70;;
18592;SDS011;9426;54.118;17.948;2022-08-07T21:09:39;2.87;;;2.13;;
18592;SDS011;9426;54.118;17.948;2022-08-07T21:15:06;4.77;;;1.80;;
18592;SDS011;9426;54.118;17.948;2022-08-07T21:20:31;2.63;;;1.90;;
18592;SDS011;9426;54.118;17.948;2022-08-07T21:25:59;2.53;;;1.80;;
18592;SDS011;9426;54.118;17.948;2022-08-07T21:31:34;4.63;;;2.17;;
18592;SDS011;9426;54.118;17.948;2022-08-07T21:37:06;4.23;;;2.27;;
18592;SDS011;9426;54.118;17.948;2022-08-07T21:42:36;5.27;;;2.27;;
18592;SDS011;9426;54.118;17.948;2022-08-07T21:48:14;5.53;;;2.43;;
18592;SDS011;9426;54.118;17.948;2022-08-07T21:53:44;5.60;;;3.00;;
18592;SDS011;9426;54.118;17.948;2022-08-07T21:59:15;5.97;;;2.90;;
18592;SDS011;9426;54.118;17.948;2022-08-07T22:04:52;9.33;;;3.83;;
18592;SDS011;9426;54.118;17.948;2022-08-07T22:10:19;6.37;;;3.30;;
18592;SDS011;9426;54.118;17.948;2022-08-07T22:15:46;6.47;;;2.90;;
18592;SDS011;9426;54.118;17.948;2022-08-07T22:21:18;5.13;;;3.00;;
18592;SDS011;9426;54.118;17.948;2022-08-07T22:26:48;5.70;;;3.03;;
18592;SDS011;9426;54.118;17.948;2022-08-07T22:32:17;5.83;;;2.83;;
18592;SDS011;9426;54.118;17.948;2022-08-07T22:37:48;5.70;;;3.27;;
18592;SDS011;9426;54.118;17.948;2022-08-07T22:43:17;13.00;;;3.90;;
18592;SDS011;9426;54.118;17.948;2022-08-07T22:48:50;6.33;;;3.73;;
18592;SDS011;9426;54.118;17.948;2022-08-07T22:54:32;7.73;;;3.77;;
18592;SDS011;9426;54.118;17.948;2022-08-07T23:00:08;11.77;;;3.87;;
18592;SDS011;9426;54.118;17.948;2022-08-07T23:05:42;9.40;;;4.00;;
18592;SDS011;9426;54.118;17.948;2022-08-07T23:11:23;6.80;;;4.17;;
18592;SDS011;9426;54.118;17.948;2022-08-07T23:17:10;7.57;;;3.90;;
18592;SDS011;9426;54.118;17.948;2022-08-07T23:22:54;7.80;;;4.37;;
18592;SDS011;9426;54.118;17.948;2022-08-07T23:29:07;8.73;;;4.47;;
18592;SDS011;9426;54.118;17.948;2022-08-07T23:34:52;11.03;;;5.43;;
18592;SDS011;9426;54.118;17.948;2022-08-07T23:40:29;10.23;;;4.63;;
18592;SDS011;9426;54.118;17.948;2022-08-07T23:46:00;10.50;;;4.37;;
18592;SDS011;9426;54.118;17.948;2022-08-07T23:51:35;6.87;;;4.10;;
18592;SDS011;9426;54.118;17.948;2022-08-07T23:57:03;8.20;;;4.43;;
